sensor_id;sensor_type;location;lat;lon;timestamp;P1;durP1;ratioP1;P2;durP2;ratioP2
3293;SDS011;1659;51.470;6.770;2024-02-21T00:02:18;39.23;;;13.87;;
3293;SDS011;1659;51.470;6.770;2024-02-21T00:04:45;39.07;;;14.63;;
3293;SDS011;1659;51.470;6.770;2024-02-21T00:07:12;42.00;;;13.77;;
3293;SDS011;1659;51.470;6.770;2024-02-21T00:09:40;29.03;;;14.10;;
3293;SDS011;1659;51.470;6.770;2024-02-21T00:12:06;32.50;;;13.70;;
3293;SDS011;1659;51.470;6.770;2024-02-21T00:14:33;33.33;;;13.30;;
3293;SDS011;1659;51.470;6.770;2024-02-21T00:17:00;32.87;;;12.93;;
3293;SDS011;1659;51.470;6.770;2024-02-21T00:19:26;40.30;;;13.80;;
3293;SDS011;1659;51.470;6.770;2024-02-21T00:21:53;44.53;;;14.77;;
3293;SDS011;1659;51.470;6.770;2024-02-21T00:24:20;43.37;;;14.00;;
3293;SDS011;1659;51.470;6.770;2024-02-21T00:26:47;38.13;;;14.63;;
3293;SDS011;1659;51.470;6.770;2024-02-21T00:29:14;37.97;;;13.73;;
3293;SDS011;1659;51.470;6.770;2024-02-21T00:31:40;30.90;;;13.63;;
3293;SDS011;1659;51.470;6.770;2024-02-21T00:34:09;34.80;;;14.53;;
3293;SDS011;1659;51.470;6.770;2024-02-21T00:36:36;27.33;;;13.50;;
3293;SDS011;1659;51.470;6.770;2024-02-21T00:39:02;42.43;;;15.70;;
3293;SDS011;1659;51.470;6.770;2024-02-21T00:41:29;37.70;;;15.43;;
3293;SDS011;1659;51.470;6.770;2024-02-21T00:43:57;33.20;;;14.23;;
3293;SDS011;1659;51.470;6.770;2024-02-21T00:46:23;33.73;;;14.40;;
3293;SDS011;1659;51.470;6.770;2024-02-21T00:48:50;33.77;;;14.70;;
3293;SDS011;1659;51.470;6.770;2024-02-21T00:51:17;40.70;;;14.73;;
3293;SDS011;1659;51.470;6.770;2024-02-21T00:53:44;44.87;;;15.83;;
3293;SDS011;1659;51.470;6.770;2024-02-21T00:56:10;35.43;;;14.70;;
3293;SDS011;1659;51.470;6.770;2024-02-21T00:58:37;30.97;;;15.03;;
3293;SDS011;1659;51.470;6.770;2024-02-21T01:01:05;44.43;;;16.50;;
3293;SDS011;1659;51.470;6.770;2024-02-21T01:03:31;29.70;;;13.30;;
3293;SDS011;1659;51.470;6.770;2024-02-21T01:05:58;32.90;;;14.73;;
3293;SDS011;1659;51.470;6.770;2024-02-21T01:08:24;35.70;;;14.20;;
3293;SDS011;1659;51.470;6.770;2024-02-21T01:10:51;41.67;;;14.63;;
3293;SDS011;1659;51.470;6.770;2024-02-21T01:13:17;34.43;;;14.90;;
3293;SDS011;1659;51.470;6.770;2024-02-21T01:15:44;34.67;;;14.27;;
3293;SDS011;1659;51.470;6.770;2024-02-21T01:18:12;37.90;;;14.50;;
3293;SDS011;1659;51.470;6.770;2024-02-21T01:20:38;37.33;;;16.20;;
3293;SDS011;1659;51.470;6.770;2024-02-21T01:23:05;34.60;;;13.43;;
3293;SDS011;1659;51.470;6.770;2024-02-21T01:25:31;36.83;;;13.40;;
3293;SDS011;1659;51.470;6.770;2024-02-21T01:27:58;37.13;;;14.00;;
3293;SDS011;1659;51.470;6.770;2024-02-21T01:30:24;29.70;;;13.27;;
3293;SDS011;1659;51.470;6.770;2024-02-21T01:32:51;31.97;;;13.67;;
3293;SDS011;1659;51.470;6.770;2024-02-21T01:35:19;31.37;;;12.83;;
3293;SDS011;1659;51.470;6.770;2024-02-21T01:37:45;28.43;;;13.80;;
3293;SDS011;1659;51.470;6.770;2024-02-21T01:40:12;36.57;;;14.40;;
3293;SDS011;1659;51.470;6.770;2024-02-21T01:42:39;26.27;;;11.97;;
3293;SDS011;1659;51.470;6.770;2024-02-21T01:45:06;36.20;;;16.13;;
3293;SDS011;1659;51.470;6.770;2024-02-21T01:47:33;29.70;;;14.07;;
3293;SDS011;1659;51.470;6.770;2024-02-21T01:50:00;31.57;;;11.63;;
3293;SDS011;1659;51.470;6.770;2024-02-21T01:52:28;27.93;;;12.07;;
3293;SDS011;1659;51.470;6.770;2024-02-21T01:54:56;30.13;;;12.13;;
3293;SDS011;1659;51.470;6.770;2024-02-21T01:57:23;38.37;;;13.00;;
3293;SDS011;1659;51.470;6.770;2024-02-21T01:59:50;29.30;;;11.73;;
3293;SDS011;1659;51.470;6.770;2024-02-21T02:02:17;26.50;;;14.97;;
3293;SDS011;1659;51.470;6.770;2024-02-21T02:04:44;32.23;;;14.80;;
3293;SDS011;1659;51.470;6.770;2024-02-21T02:07:11;34.00;;;11.53;;
3293;SDS011;1659;51.470;6.770;2024-02-21T02:09:39;30.00;;;11.87;;
3293;SDS011;1659;51.470;6.770;2024-02-21T02:12:06;31.10;;;13.40;;
3293;SDS011;1659;51.470;6.770;2024-02-21T02:14:33;32.13;;;12.10;;
3293;SDS011;1659;51.470;6.770;2024-02-21T02:17:00;31.13;;;11.60;;
3293;SDS011;1659;51.470;6.770;2024-02-21T02:19:26;36.80;;;13.97;;
3293;SDS011;1659;51.470;6.770;2024-02-21T02:21:53;38.67;;;15.43;;
3293;SDS011;1659;51.470;6.770;2024-02-21T02:24:25;32.43;;;12.00;;
3293;SDS011;1659;51.470;6.770;2024-02-21T02:26:51;24.33;;;11.93;;
3293;SDS011;1659;51.470;6.770;2024-02-21T02:29:18;31.37;;;11.87;;
3293;SDS011;1659;51.470;6.770;2024-02-21T02:31:44;25.40;;;11.37;;
3293;SDS011;1659;51.470;6.770;2024-02-21T02:34:11;29.73;;;12.33;;
3293;SDS011;1659;51.470;6.770;2024-02-21T02:36:37;31.53;;;12.90;;
3293;SDS011;1659;51.470;6.770;2024-02-21T02:39:04;35.87;;;12.40;;
3293;SDS011;1659;51.470;6.770;2024-02-21T02:41:34;39.13;;;13.83;;
3293;SDS011;1659;51.470;6.770;2024-02-21T02:44:01;29.83;;;11.60;;
3293;SDS011;1659;51.470;6.770;2024-02-21T02:46:27;33.43;;;13.30;;
3293;SDS011;1659;51.470;6.770;2024-02-21T02:48:54;28.93;;;12.90;;
3293;SDS011;1659;51.470;6.770;2024-02-21T02:51:20;26.77;;;11.37;;
3293;SDS011;1659;51.470;6.770;2024-02-21T02:53:47;30.07;;;12.70;;
3293;SDS011;1659;51.470;6.770;2024-02-21T02:56:14;31.30;;;11.93;;
3293;SDS011;1659;51.470;6.770;2024-02-21T02:58:43;25.03;;;11.13;;
3293;SDS011;1659;51.470;6.770;2024-02-21T03:01:10;38.87;;;12.40;;
3293;SDS011;1659;51.470;6.770;2024-02-21T03:03:36;31.47;;;13.27;;
3293;SDS011;1659;51.470;6.770;2024-02-21T03:06:03;30.67;;;12.40;;
3293;SDS011;1659;51.470;6.770;2024-02-21T03:08:30;41.00;;;13.30;;
3293;SDS011;1659;51.470;6.770;2024-02-21T03:10:57;28.20;;;13.57;;
3293;SDS011;1659;51.470;6.770;2024-02-21T03:13:24;31.53;;;12.93;;
3293;SDS011;1659;51.470;6.770;2024-02-21T03:15:52;45.70;;;14.77;;
3293;SDS011;1659;51.470;6.770;2024-02-21T03:18:18;27.63;;;11.97;;
3293;SDS011;1659;51.470;6.770;2024-02-21T03:20:45;38.17;;;13.40;;
3293;SDS011;1659;51.470;6.770;2024-02-21T03:23:12;28.00;;;11.30;;
3293;SDS011;1659;51.470;6.770;2024-02-21T03:25:38;31.70;;;12.17;;
3293;SDS011;1659;51.470;6.770;2024-02-21T03:28:05;32.10;;;13.07;;
3293;SDS011;1659;51.470;6.770;2024-02-21T03:30:31;31.93;;;13.33;;
3293;SDS011;1659;51.470;6.770;2024-02-21T03:33:00;34.33;;;12.57;;
3293;SDS011;1659;51.470;6.770;2024-02-21T03:35:27;41.93;;;12.50;;
3293;SDS011;1659;51.470;6.770;2024-02-21T03:37:53;27.03;;;12.83;;
3293;SDS011;1659;51.470;6.770;2024-02-21T03:40:20;31.10;;;13.73;;
3293;SDS011;1659;51.470;6.770;2024-02-21T03:42:46;36.00;;;13.30;;
3293;SDS011;1659;51.470;6.770;2024-02-21T03:45:13;34.77;;;13.23;;
3293;SDS011;1659;51.470;6.770;2024-02-21T03:47:40;31.20;;;13.43;;
3293;SDS011;1659;51.470;6.770;2024-02-21T03:50:08;32.40;;;13.27;;
3293;SDS011;1659;51.470;6.770;2024-02-21T03:52:35;25.90;;;13.40;;
3293;SDS011;1659;51.470;6.770;2024-02-21T03:55:01;27.07;;;11.90;;
3293;SDS011;1659;51.470;6.770;2024-02-21T03:57:28;30.60;;;12.47;;
3293;SDS011;1659;51.470;6.770;2024-02-21T03:59:55;22.00;;;12.97;;
3293;SDS011;1659;51.470;6.770;2024-02-21T04:02:21;29.10;;;12.80;;
3293;SDS011;1659;51.470;6.770;2024-02-21T04:04:48;26.60;;;12.10;;
3293;SDS011;1659;51.470;6.770;2024-02-21T04:07:15;35.03;;;12.13;;
3293;SDS011;1659;51.470;6.770;2024-02-21T04:09:42;31.97;;;11.70;;
3293;SDS011;1659;51.470;6.770;2024-02-21T04:12:08;26.30;;;11.60;;
3293;SDS011;1659;51.470;6.770;2024-02-21T04:14:35;18.33;;;10.60;;
3293;SDS011;1659;51.470;6.770;2024-02-21T04:17:02;24.13;;;11.70;;
3293;SDS011;1659;51.470;6.770;2024-02-21T04:19:30;29.43;;;11.97;;
3293;SDS011;1659;51.470;6.770;2024-02-21T04:21:57;27.20;;;12.13;;
3293;SDS011;1659;51.470;6.770;2024-02-21T04:24:24;29.10;;;12.20;;
3293;SDS011;1659;51.470;6.770;2024-02-21T04:26:51;30.77;;;11.70;;
3293;SDS011;1659;51.470;6.770;2024-02-21T04:29:18;23.20;;;11.13;;
3293;SDS011;1659;51.470;6.770;2024-02-21T04:31:44;30.97;;;10.60;;
3293;SDS011;1659;51.470;6.770;2024-02-21T04:34:11;23.13;;;11.47;;
3293;SDS011;1659;51.470;6.770;2024-02-21T04:36:37;39.93;;;12.30;;
3293;SDS011;1659;51.470;6.770;2024-02-21T04:39:04;29.13;;;12.83;;
3293;SDS011;1659;51.470;6.770;2024-02-21T04:41:31;32.57;;;14.30;;
3293;SDS011;1659;51.470;6.770;2024-02-21T04:43:57;37.53;;;14.07;;
3293;SDS011;1659;51.470;6.770;2024-02-21T04:46:24;37.17;;;12.80;;
3293;SDS011;1659;51.470;6.770;2024-02-21T04:48:50;32.47;;;12.10;;
3293;SDS011;1659;51.470;6.770;2024-02-21T04:51:17;21.80;;;10.13;;
3293;SDS011;1659;51.470;6.770;2024-02-21T04:53:44;24.77;;;11.80;;
3293;SDS011;1659;51.470;6.770;2024-02-21T04:56:11;34.20;;;12.30;;
3293;SDS011;1659;51.470;6.770;2024-02-21T04:58:39;22.00;;;10.80;;
3293;SDS011;1659;51.470;6.770;2024-02-21T05:01:06;23.53;;;10.77;;
3293;SDS011;1659;51.470;6.770;2024-02-21T05:03:32;20.53;;;10.20;;
3293;SDS011;1659;51.470;6.770;2024-02-21T05:05:59;25.60;;;10.80;;
3293;SDS011;1659;51.470;6.770;2024-02-21T05:08:26;16.93;;;8.90;;
3293;SDS011;1659;51.470;6.770;2024-02-21T05:10:52;25.37;;;10.90;;
3293;SDS011;1659;51.470;6.770;2024-02-21T05:13:19;18.30;;;10.10;;
3293;SDS011;1659;51.470;6.770;2024-02-21T05:15:46;21.43;;;10.30;;
3293;SDS011;1659;51.470;6.770;2024-02-21T05:18:13;30.60;;;12.37;;
3293;SDS011;1659;51.470;6.770;2024-02-21T05:20:40;25.77;;;11.53;;
3293;SDS011;1659;51.470;6.770;2024-02-21T05:23:06;31.57;;;13.03;;
3293;SDS011;1659;51.470;6.770;2024-02-21T05:25:33;29.13;;;12.80;;
3293;SDS011;1659;51.470;6.770;2024-02-21T05:27:59;38.57;;;14.53;;
3293;SDS011;1659;51.470;6.770;2024-02-21T05:30:28;37.20;;;14.70;;
3293;SDS011;1659;51.470;6.770;2024-02-21T05:32:56;25.23;;;11.87;;
3293;SDS011;1659;51.470;6.770;2024-02-21T05:35:24;37.73;;;14.27;;
3293;SDS011;1659;51.470;6.770;2024-02-21T05:37:52;32.60;;;12.10;;
3293;SDS011;1659;51.470;6.770;2024-02-21T05:40:19;30.30;;;12.87;;
3293;SDS011;1659;51.470;6.770;2024-02-21T05:42:45;35.57;;;13.30;;
3293;SDS011;1659;51.470;6.770;2024-02-21T05:45:12;30.43;;;14.13;;
3293;SDS011;1659;51.470;6.770;2024-02-21T05:47:40;33.77;;;13.43;;
3293;SDS011;1659;51.470;6.770;2024-02-21T05:50:09;34.37;;;16.40;;
3293;SDS011;1659;51.470;6.770;2024-02-21T05:52:36;34.33;;;15.57;;
3293;SDS011;1659;51.470;6.770;2024-02-21T05:55:03;37.63;;;15.30;;
3293;SDS011;1659;51.470;6.770;2024-02-21T05:57:30;33.30;;;14.67;;
3293;SDS011;1659;51.470;6.770;2024-02-21T05:59:57;30.10;;;11.77;;
3293;SDS011;1659;51.470;6.770;2024-02-21T06:02:23;31.03;;;14.33;;
3293;SDS011;1659;51.470;6.770;2024-02-21T06:04:50;35.37;;;13.53;;
3293;SDS011;1659;51.470;6.770;2024-02-21T06:07:18;32.40;;;14.10;;
3293;SDS011;1659;51.470;6.770;2024-02-21T06:09:44;33.73;;;13.33;;
3293;SDS011;1659;51.470;6.770;2024-02-21T06:12:11;40.53;;;16.60;;
3293;SDS011;1659;51.470;6.770;2024-02-21T06:14:38;33.80;;;15.67;;
3293;SDS011;1659;51.470;6.770;2024-02-21T06:17:04;42.13;;;16.13;;
3293;SDS011;1659;51.470;6.770;2024-02-21T06:19:31;46.63;;;17.43;;
3293;SDS011;1659;51.470;6.770;2024-02-21T06:21:57;35.13;;;14.70;;
3293;SDS011;1659;51.470;6.770;2024-02-21T06:24:25;41.53;;;14.73;;
3293;SDS011;1659;51.470;6.770;2024-02-21T06:26:52;31.77;;;14.60;;
3293;SDS011;1659;51.470;6.770;2024-02-21T06:29:19;36.30;;;15.50;;
3293;SDS011;1659;51.470;6.770;2024-02-21T06:31:45;35.00;;;14.27;;
3293;SDS011;1659;51.470;6.770;2024-02-21T06:34:12;43.53;;;16.90;;
3293;SDS011;1659;51.470;6.770;2024-02-21T06:36:39;37.60;;;14.00;;
3293;SDS011;1659;51.470;6.770;2024-02-21T06:39:05;36.93;;;14.80;;
3293;SDS011;1659;51.470;6.770;2024-02-21T06:41:34;42.33;;;15.23;;
3293;SDS011;1659;51.470;6.770;2024-02-21T06:44:01;35.43;;;15.33;;
3293;SDS011;1659;51.470;6.770;2024-02-21T06:46:29;39.93;;;15.33;;
3293;SDS011;1659;51.470;6.770;2024-02-21T06:48:57;43.10;;;16.97;;
3293;SDS011;1659;51.470;6.770;2024-02-21T06:51:25;48.00;;;16.07;;
3293;SDS011;1659;51.470;6.770;2024-02-21T06:53:52;42.00;;;15.17;;
3293;SDS011;1659;51.470;6.770;2024-02-21T06:56:19;32.67;;;13.90;;
3293;SDS011;1659;51.470;6.770;2024-02-21T06:58:47;32.07;;;13.40;;
3293;SDS011;1659;51.470;6.770;2024-02-21T07:01:13;25.93;;;12.67;;
3293;SDS011;1659;51.470;6.770;2024-02-21T07:03:40;21.20;;;9.90;;
3293;SDS011;1659;51.470;6.770;2024-02-21T07:06:07;25.90;;;10.83;;
3293;SDS011;1659;51.470;6.770;2024-02-21T07:08:33;28.13;;;11.40;;
3293;SDS011;1659;51.470;6.770;2024-02-21T07:11:00;33.73;;;11.90;;
3293;SDS011;1659;51.470;6.770;2024-02-21T07:13:27;30.93;;;12.13;;
3293;SDS011;1659;51.470;6.770;2024-02-21T07:15:55;25.43;;;11.13;;
3293;SDS011;1659;51.470;6.770;2024-02-21T07:18:21;24.73;;;9.70;;
3293;SDS011;1659;51.470;6.770;2024-02-21T07:20:50;24.03;;;10.77;;
3293;SDS011;1659;51.470;6.770;2024-02-21T07:23:16;26.30;;;10.60;;
3293;SDS011;1659;51.470;6.770;2024-02-21T07:25:43;20.87;;;10.10;;
3293;SDS011;1659;51.470;6.770;2024-02-21T07:28:09;23.17;;;10.23;;
3293;SDS011;1659;51.470;6.770;2024-02-21T07:30:36;21.10;;;9.23;;
3293;SDS011;1659;51.470;6.770;2024-02-21T07:33:04;18.93;;;9.07;;
3293;SDS011;1659;51.470;6.770;2024-02-21T07:35:32;21.73;;;9.70;;
3293;SDS011;1659;51.470;6.770;2024-02-21T07:37:58;14.50;;;9.13;;
3293;SDS011;1659;51.470;6.770;2024-02-21T07:40:25;26.47;;;10.67;;
3293;SDS011;1659;51.470;6.770;2024-02-21T07:42:52;21.63;;;9.30;;
3293;SDS011;1659;51.470;6.770;2024-02-21T07:45:18;15.77;;;8.97;;
3293;SDS011;1659;51.470;6.770;2024-02-21T07:47:46;18.77;;;8.70;;
3293;SDS011;1659;51.470;6.770;2024-02-21T07:50:14;15.57;;;8.03;;
3293;SDS011;1659;51.470;6.770;2024-02-21T07:52:41;12.30;;;7.40;;
3293;SDS011;1659;51.470;6.770;2024-02-21T07:55:08;12.50;;;6.97;;
3293;SDS011;1659;51.470;6.770;2024-02-21T07:57:36;15.37;;;7.33;;
3293;SDS011;1659;51.470;6.770;2024-02-21T08:00:03;17.43;;;7.87;;
3293;SDS011;1659;51.470;6.770;2024-02-21T08:02:30;12.47;;;6.47;;
3293;SDS011;1659;51.470;6.770;2024-02-21T08:04:56;14.30;;;6.23;;
3293;SDS011;1659;51.470;6.770;2024-02-21T08:07:24;17.23;;;8.07;;
3293;SDS011;1659;51.470;6.770;2024-02-21T08:09:54;20.80;;;7.30;;
3293;SDS011;1659;51.470;6.770;2024-02-21T08:12:20;15.93;;;7.70;;
3293;SDS011;1659;51.470;6.770;2024-02-21T08:14:47;15.50;;;8.70;;
3293;SDS011;1659;51.470;6.770;2024-02-21T08:17:13;13.50;;;6.30;;
3293;SDS011;1659;51.470;6.770;2024-02-21T08:19:40;9.97;;;6.03;;
3293;SDS011;1659;51.470;6.770;2024-02-21T08:22:06;11.30;;;5.40;;
3293;SDS011;1659;51.470;6.770;2024-02-21T08:24:34;13.27;;;6.23;;
3293;SDS011;1659;51.470;6.770;2024-02-21T08:27:01;10.90;;;6.00;;
3293;SDS011;1659;51.470;6.770;2024-02-21T08:29:27;18.83;;;6.93;;
3293;SDS011;1659;51.470;6.770;2024-02-21T08:31:54;16.00;;;7.20;;
3293;SDS011;1659;51.470;6.770;2024-02-21T08:34:20;24.10;;;7.90;;
3293;SDS011;1659;51.470;6.770;2024-02-21T08:36:47;11.27;;;7.77;;
3293;SDS011;1659;51.470;6.770;2024-02-21T08:39:13;13.40;;;7.83;;
3293;SDS011;1659;51.470;6.770;2024-02-21T08:41:43;17.60;;;7.53;;
3293;SDS011;1659;51.470;6.770;2024-02-21T08:44:09;15.57;;;7.00;;
3293;SDS011;1659;51.470;6.770;2024-02-21T08:46:36;16.97;;;7.40;;
3293;SDS011;1659;51.470;6.770;2024-02-21T08:49:05;15.50;;;7.10;;
3293;SDS011;1659;51.470;6.770;2024-02-21T08:51:31;18.67;;;7.03;;
3293;SDS011;1659;51.470;6.770;2024-02-21T08:53:58;19.37;;;7.70;;
3293;SDS011;1659;51.470;6.770;2024-02-21T08:56:26;17.80;;;7.00;;
3293;SDS011;1659;51.470;6.770;2024-02-21T08:58:53;16.40;;;7.17;;
3293;SDS011;1659;51.470;6.770;2024-02-21T09:01:20;16.30;;;6.37;;
3293;SDS011;1659;51.470;6.770;2024-02-21T09:03:47;20.37;;;6.67;;
3293;SDS011;1659;51.470;6.770;2024-02-21T09:06:17;15.13;;;6.90;;
3293;SDS011;1659;51.470;6.770;2024-02-21T09:08:44;11.50;;;6.60;;
3293;SDS011;1659;51.470;6.770;2024-02-21T09:11:11;11.53;;;5.80;;
3293;SDS011;1659;51.470;6.770;2024-02-21T09:13:38;15.87;;;6.43;;
3293;SDS011;1659;51.470;6.770;2024-02-21T09:16:06;12.30;;;6.77;;
3293;SDS011;1659;51.470;6.770;2024-02-21T09:18:34;20.77;;;6.80;;
3293;SDS011;1659;51.470;6.770;2024-02-21T09:21:00;14.93;;;6.80;;
3293;SDS011;1659;51.470;6.770;2024-02-21T09:23:27;11.80;;;5.90;;
3293;SDS011;1659;51.470;6.770;2024-02-21T09:25:53;8.10;;;6.03;;
3293;SDS011;1659;51.470;6.770;2024-02-21T09:28:20;15.53;;;6.40;;
3293;SDS011;1659;51.470;6.770;2024-02-21T09:30:47;14.17;;;6.17;;
3293;SDS011;1659;51.470;6.770;2024-02-21T09:33:15;15.27;;;6.83;;
3293;SDS011;1659;51.470;6.770;2024-02-21T09:35:42;10.33;;;6.20;;
3293;SDS011;1659;51.470;6.770;2024-02-21T09:38:08;11.63;;;5.77;;
3293;SDS011;1659;51.470;6.770;2024-02-21T09:40:35;12.20;;;6.50;;
3293;SDS011;1659;51.470;6.770;2024-02-21T09:43:04;15.23;;;6.37;;
3293;SDS011;1659;51.470;6.770;2024-02-21T09:45:32;14.10;;;5.90;;
3293;SDS011;1659;51.470;6.770;2024-02-21T09:50:56;13.30;;;6.23;;
3293;SDS011;1659;51.470;6.770;2024-02-21T09:53:25;16.60;;;5.47;;
3293;SDS011;1659;51.470;6.770;2024-02-21T09:55:53;13.43;;;6.77;;
3293;SDS011;1659;51.470;6.770;2024-02-21T09:58:21;14.83;;;6.03;;
3293;SDS011;1659;51.470;6.770;2024-02-21T10:00:51;16.37;;;5.20;;
3293;SDS011;1659;51.470;6.770;2024-02-21T10:03:17;7.97;;;5.07;;
3293;SDS011;1659;51.470;6.770;2024-02-21T10:05:48;9.67;;;4.73;;
3293;SDS011;1659;51.470;6.770;2024-02-21T10:08:15;16.77;;;5.80;;
3293;SDS011;1659;51.470;6.770;2024-02-21T10:10:43;9.27;;;5.50;;
3293;SDS011;1659;51.470;6.770;2024-02-21T10:13:10;11.20;;;5.30;;
3293;SDS011;1659;51.470;6.770;2024-02-21T10:15:36;11.27;;;5.27;;
3293;SDS011;1659;51.470;6.770;2024-02-21T10:18:03;17.63;;;6.73;;
3293;SDS011;1659;51.470;6.770;2024-02-21T10:20:31;14.57;;;6.30;;
3293;SDS011;1659;51.470;6.770;2024-02-21T10:23:02;31.27;;;6.77;;
3293;SDS011;1659;51.470;6.770;2024-02-21T10:25:33;11.53;;;7.23;;
3293;SDS011;1659;51.470;6.770;2024-02-21T10:28:00;24.47;;;8.30;;
3293;SDS011;1659;51.470;6.770;2024-02-21T10:30:27;13.30;;;6.67;;
3293;SDS011;1659;51.470;6.770;2024-02-21T10:32:54;18.33;;;7.27;;
3293;SDS011;1659;51.470;6.770;2024-02-21T10:35:27;19.47;;;7.13;;
3293;SDS011;1659;51.470;6.770;2024-02-21T10:37:54;13.87;;;6.47;;
3293;SDS011;1659;51.470;6.770;2024-02-21T10:40:24;21.80;;;7.20;;
3293;SDS011;1659;51.470;6.770;2024-02-21T10:42:53;13.93;;;7.40;;
3293;SDS011;1659;51.470;6.770;2024-02-21T10:45:24;18.03;;;7.53;;
3293;SDS011;1659;51.470;6.770;2024-02-21T10:47:55;11.77;;;5.97;;
3293;SDS011;1659;51.470;6.770;2024-02-21T10:50:27;14.30;;;6.90;;
3293;SDS011;1659;51.470;6.770;2024-02-21T10:53:00;13.43;;;6.23;;
3293;SDS011;1659;51.470;6.770;2024-02-21T10:55:38;13.40;;;5.10;;
3293;SDS011;1659;51.470;6.770;2024-02-21T10:58:07;15.00;;;5.93;;
3293;SDS011;1659;51.470;6.770;2024-02-21T11:00:35;8.37;;;4.60;;
3293;SDS011;1659;51.470;6.770;2024-02-21T11:03:03;12.57;;;4.70;;
3293;SDS011;1659;51.470;6.770;2024-02-21T11:05:31;11.70;;;3.87;;
3293;SDS011;1659;51.470;6.770;2024-02-21T11:07:59;8.77;;;4.50;;
3293;SDS011;1659;51.470;6.770;2024-02-21T11:10:27;8.10;;;4.20;;
3293;SDS011;1659;51.470;6.770;2024-02-21T11:13:04;10.90;;;4.50;;
3293;SDS011;1659;51.470;6.770;2024-02-21T11:15:32;12.93;;;4.47;;
3293;SDS011;1659;51.470;6.770;2024-02-21T11:17:59;7.90;;;5.30;;
3293;SDS011;1659;51.470;6.770;2024-02-21T11:20:31;16.47;;;5.30;;
3293;SDS011;1659;51.470;6.770;2024-02-21T11:22:59;9.50;;;4.43;;
3293;SDS011;1659;51.470;6.770;2024-02-21T11:25:26;9.67;;;4.43;;
3293;SDS011;1659;51.470;6.770;2024-02-21T11:27:59;13.20;;;4.70;;
3293;SDS011;1659;51.470;6.770;2024-02-21T11:30:27;16.30;;;7.37;;
3293;SDS011;1659;51.470;6.770;2024-02-21T11:32:59;11.80;;;5.43;;
3293;SDS011;1659;51.470;6.770;2024-02-21T11:35:26;9.23;;;5.47;;
3293;SDS011;1659;51.470;6.770;2024-02-21T11:37:57;13.13;;;4.93;;
3293;SDS011;1659;51.470;6.770;2024-02-21T11:40:34;7.73;;;4.93;;
3293;SDS011;1659;51.470;6.770;2024-02-21T11:43:02;10.40;;;5.20;;
3293;SDS011;1659;51.470;6.770;2024-02-21T11:45:29;20.60;;;6.70;;
3293;SDS011;1659;51.470;6.770;2024-02-21T11:47:57;8.30;;;5.27;;
3293;SDS011;1659;51.470;6.770;2024-02-21T11:50:25;16.80;;;6.20;;
3293;SDS011;1659;51.470;6.770;2024-02-21T11:52:53;18.00;;;4.87;;
3293;SDS011;1659;51.470;6.770;2024-02-21T11:55:20;10.07;;;5.73;;
3293;SDS011;1659;51.470;6.770;2024-02-21T11:57:48;11.97;;;5.33;;
3293;SDS011;1659;51.470;6.770;2024-02-21T12:00:17;14.43;;;5.90;;
3293;SDS011;1659;51.470;6.770;2024-02-21T12:02:46;10.50;;;5.03;;
3293;SDS011;1659;51.470;6.770;2024-02-21T12:05:13;9.07;;;6.17;;
3293;SDS011;1659;51.470;6.770;2024-02-21T12:07:40;14.27;;;5.00;;
3293;SDS011;1659;51.470;6.770;2024-02-21T12:10:07;9.67;;;5.37;;
3293;SDS011;1659;51.470;6.770;2024-02-21T12:12:35;9.37;;;6.30;;
3293;SDS011;1659;51.470;6.770;2024-02-21T12:15:03;14.97;;;6.03;;
3293;SDS011;1659;51.470;6.770;2024-02-21T12:17:32;7.10;;;4.83;;
3293;SDS011;1659;51.470;6.770;2024-02-21T12:19:59;7.87;;;4.70;;
3293;SDS011;1659;51.470;6.770;2024-02-21T12:22:26;7.27;;;5.87;;
3293;SDS011;1659;51.470;6.770;2024-02-21T12:24:53;12.40;;;5.03;;
3293;SDS011;1659;51.470;6.770;2024-02-21T12:27:19;24.00;;;5.50;;
3293;SDS011;1659;51.470;6.770;2024-02-21T12:29:47;14.37;;;5.00;;
3293;SDS011;1659;51.470;6.770;2024-02-21T12:32:13;9.23;;;5.67;;
3293;SDS011;1659;51.470;6.770;2024-02-21T12:34:41;10.60;;;6.67;;
3293;SDS011;1659;51.470;6.770;2024-02-21T12:37:08;15.33;;;5.33;;
3293;SDS011;1659;51.470;6.770;2024-02-21T12:39:34;16.37;;;5.00;;
3293;SDS011;1659;51.470;6.770;2024-02-21T12:42:03;9.10;;;5.50;;
3293;SDS011;1659;51.470;6.770;2024-02-21T12:44:30;8.67;;;5.80;;
3293;SDS011;1659;51.470;6.770;2024-02-21T12:46:57;16.30;;;5.50;;
3293;SDS011;1659;51.470;6.770;2024-02-21T12:49:23;6.63;;;5.33;;
3293;SDS011;1659;51.470;6.770;2024-02-21T12:51:53;9.47;;;4.50;;
3293;SDS011;1659;51.470;6.770;2024-02-21T12:54:20;12.10;;;5.40;;
3293;SDS011;1659;51.470;6.770;2024-02-21T12:56:47;11.93;;;4.57;;
3293;SDS011;1659;51.470;6.770;2024-02-21T12:59:15;10.67;;;4.50;;
3293;SDS011;1659;51.470;6.770;2024-02-21T13:01:42;12.93;;;5.47;;
3293;SDS011;1659;51.470;6.770;2024-02-21T13:04:08;15.33;;;5.30;;
3293;SDS011;1659;51.470;6.770;2024-02-21T13:06:36;20.67;;;4.20;;
3293;SDS011;1659;51.470;6.770;2024-02-21T13:09:04;8.50;;;4.50;;
3293;SDS011;1659;51.470;6.770;2024-02-21T13:11:33;8.80;;;4.33;;
3293;SDS011;1659;51.470;6.770;2024-02-21T13:14:00;8.83;;;4.63;;
3293;SDS011;1659;51.470;6.770;2024-02-21T13:16:27;9.67;;;4.33;;
3293;SDS011;1659;51.470;6.770;2024-02-21T13:18:53;5.90;;;4.00;;
3293;SDS011;1659;51.470;6.770;2024-02-21T13:21:20;9.23;;;4.30;;
3293;SDS011;1659;51.470;6.770;2024-02-21T13:23:46;13.77;;;6.53;;
3293;SDS011;1659;51.470;6.770;2024-02-21T13:26:14;8.27;;;4.30;;
3293;SDS011;1659;51.470;6.770;2024-02-21T13:28:41;5.23;;;4.07;;
3293;SDS011;1659;51.470;6.770;2024-02-21T13:31:09;14.50;;;4.90;;
3293;SDS011;1659;51.470;6.770;2024-02-21T13:33:36;12.50;;;4.90;;
3293;SDS011;1659;51.470;6.770;2024-02-21T13:36:03;16.13;;;4.43;;
3293;SDS011;1659;51.470;6.770;2024-02-21T13:38:30;8.60;;;4.73;;
3293;SDS011;1659;51.470;6.770;2024-02-21T13:40:57;11.60;;;5.20;;
3293;SDS011;1659;51.470;6.770;2024-02-21T13:43:26;14.00;;;5.30;;
3293;SDS011;1659;51.470;6.770;2024-02-21T13:45:55;9.77;;;3.70;;
3293;SDS011;1659;51.470;6.770;2024-02-21T13:48:23;10.27;;;5.80;;
3293;SDS011;1659;51.470;6.770;2024-02-21T13:50:49;11.60;;;4.17;;
3293;SDS011;1659;51.470;6.770;2024-02-21T13:53:16;8.20;;;4.20;;
3293;SDS011;1659;51.470;6.770;2024-02-21T13:55:43;10.57;;;4.50;;
3293;SDS011;1659;51.470;6.770;2024-02-21T13:58:10;9.53;;;4.23;;
3293;SDS011;1659;51.470;6.770;2024-02-21T14:00:38;7.43;;;4.30;;
3293;SDS011;1659;51.470;6.770;2024-02-21T14:03:05;9.90;;;4.63;;
3293;SDS011;1659;51.470;6.770;2024-02-21T14:05:31;11.80;;;4.70;;
3293;SDS011;1659;51.470;6.770;2024-02-21T14:07:58;7.37;;;4.33;;
3293;SDS011;1659;51.470;6.770;2024-02-21T14:10:24;13.13;;;5.13;;
3293;SDS011;1659;51.470;6.770;2024-02-21T14:12:51;6.00;;;4.83;;
3293;SDS011;1659;51.470;6.770;2024-02-21T14:15:18;8.53;;;4.63;;
3293;SDS011;1659;51.470;6.770;2024-02-21T14:17:46;8.27;;;4.70;;
3293;SDS011;1659;51.470;6.770;2024-02-21T14:20:12;7.77;;;4.70;;
3293;SDS011;1659;51.470;6.770;2024-02-21T14:22:40;11.17;;;5.63;;
3293;SDS011;1659;51.470;6.770;2024-02-21T14:25:07;11.40;;;6.20;;
3293;SDS011;1659;51.470;6.770;2024-02-21T14:27:36;6.73;;;5.13;;
3293;SDS011;1659;51.470;6.770;2024-02-21T14:30:03;7.40;;;5.13;;
3293;SDS011;1659;51.470;6.770;2024-02-21T14:32:30;11.40;;;4.87;;
3293;SDS011;1659;51.470;6.770;2024-02-21T14:34:58;13.60;;;4.87;;
3293;SDS011;1659;51.470;6.770;2024-02-21T14:37:24;10.60;;;5.37;;
3293;SDS011;1659;51.470;6.770;2024-02-21T14:39:51;9.87;;;5.50;;
3293;SDS011;1659;51.470;6.770;2024-02-21T14:42:17;9.83;;;5.60;;
3293;SDS011;1659;51.470;6.770;2024-02-21T14:44:44;9.33;;;4.87;;
3293;SDS011;1659;51.470;6.770;2024-02-21T14:47:10;8.93;;;4.90;;
3293;SDS011;1659;51.470;6.770;2024-02-21T14:49:37;6.20;;;5.00;;
3293;SDS011;1659;51.470;6.770;2024-02-21T14:52:05;10.10;;;5.07;;
3293;SDS011;1659;51.470;6.770;2024-02-21T14:54:32;9.43;;;5.37;;
3293;SDS011;1659;51.470;6.770;2024-02-21T14:56:59;11.83;;;5.83;;
3293;SDS011;1659;51.470;6.770;2024-02-21T14:59:26;14.30;;;5.27;;